Time;durP1;ratioP1;P1;durP2;ratioP2;P2;SDS_P1;SDS_P2;PMS_P1;PMS_P2;Temp;Humidity;BMP_temperature;BMP_pressure;BME280_temperature;BME280_humidity;BME280_pressure;Samples;Min_cycle;Max_cycle;Signal;HPM_P1;HPM_P2
2023/12/19 00:01:28;;;;;;;7.03;3.83;;;;;;;;;;8225936;28;20860;-57
2023/12/19 00:05:28;;;;;;;6.53;4.47;;;;;;;;;;8227634;28;20026;-57
2023/12/19 00:09:29;;;;;;;11.32;5.97;;;;;;;;;;8227750;28;20129;-58
2023/12/19 00:13:29;;;;;;;10.98;7.07;;;;;;;;;;8231146;28;20106;-58
2023/12/19 00:17:29;;;;;;;9.93;7.20;;;;;;;;;;8233568;28;20127;-57
2023/12/19 00:21:29;;;;;;;9.35;6.15;;;;;;;;;;8236845;28;20269;-57
2023/12/19 00:25:31;;;;;;;10.07;6.20;;;;;;;;;;8235838;28;20026;-58
2023/12/19 00:29:31;;;;;;;10.52;6.88;;;;;;;;;;8232678;28;20625;-57
2023/12/19 00:33:32;;;;;;;10.93;7.18;;;;;;;;;;8228793;28;20148;-57
2023/12/19 00:37:32;;;;;;;9.35;6.05;;;;;;;;;;8228123;28;20045;-58
2023/12/19 00:41:33;;;;;;;10.33;7.03;;;;;;;;;;8239213;28;20092;-57
2023/12/19 00:45:33;;;;;;;10.10;7.80;;;;;;;;;;8240440;28;20344;-58
2023/12/19 00:49:33;;;;;;;11.10;7.70;;;;;;;;;;8232607;28;20511;-59
2023/12/19 00:53:33;;;;;;;12.10;8.17;;;;;;;;;;8228662;28;20045;-57
2023/12/19 00:57:33;;;;;;;11.57;7.88;;;;;;;;;;8225174;28;20289;-57
2023/12/19 01:01:34;;;;;;;10.73;7.50;;;;;;;;;;8224871;28;20081;-58
2023/12/19 01:05:34;;;;;;;10.88;7.45;;;;;;;;;;8228606;28;20274;-58
2023/12/19 01:09:34;;;;;;;9.85;6.68;;;;;;;;;;8229523;28;20032;-57
2023/12/19 01:13:35;;;;;;;10.90;6.50;;;;;;;;;;8225643;28;20037;-57
2023/12/19 01:17:35;;;;;;;8.52;5.75;;;;;;;;;;8227161;28;20049;-57
2023/12/19 01:21:36;;;;;;;6.97;5.30;;;;;;;;;;8224270;28;20112;-59
2023/12/19 01:25:37;;;;;;;7.45;5.30;;;;;;;;;;8228499;28;20025;-58
2023/12/19 01:29:37;;;;;;;10.10;7.32;;;;;;;;;;8227423;28;20048;-58
2023/12/19 01:33:38;;;;;;;11.02;6.82;;;;;;;;;;8228427;28;20412;-57
2023/12/19 01:37:38;;;;;;;12.85;8.50;;;;;;;;;;8226000;28;20026;-58
2023/12/19 01:41:38;;;;;;;11.13;7.80;;;;;;;;;;8222603;28;20062;-58
2023/12/19 01:45:38;;;;;;;12.57;8.02;;;;;;;;;;8225848;28;20133;-58
2023/12/19 01:49:38;;;;;;;11.38;8.02;;;;;;;;;;8228013;28;20060;-56
2023/12/19 01:53:40;;;;;;;12.65;8.70;;;;;;;;;;8223684;28;20037;-57
2023/12/19 01:57:40;;;;;;;12.27;8.35;;;;;;;;;;8222839;28;20587;-57
2023/12/19 02:01:40;;;;;;;14.10;9.25;;;;;;;;;;8224248;28;20088;-56
2023/12/19 02:05:43;;;;;;;14.15;8.68;;;;;;;;;;8227226;28;20471;-56
2023/12/19 02:09:43;;;;;;;12.65;8.80;;;;;;;;;;8224116;28;20166;-57
2023/12/19 02:13:43;;;;;;;14.13;9.07;;;;;;;;;;8229877;28;20026;-57
2023/12/19 02:17:44;;;;;;;14.77;9.93;;;;;;;;;;8223980;28;20041;-58
2023/12/19 02:21:44;;;;;;;12.85;8.65;;;;;;;;;;8225131;28;20033;-58
2023/12/19 02:25:44;;;;;;;12.02;8.18;;;;;;;;;;8225481;28;20030;-58
2023/12/19 02:29:44;;;;;;;14.20;9.10;;;;;;;;;;8229918;28;20048;-57
2023/12/19 02:33:46;;;;;;;13.02;9.25;;;;;;;;;;8232112;28;20034;-58
2023/12/19 02:37:47;;;;;;;13.43;8.57;;;;;;;;;;8238183;28;20030;-58
2023/12/19 02:41:47;;;;;;;12.73;8.57;;;;;;;;;;8239646;28;20121;-58
2023/12/19 02:45:47;;;;;;;13.88;9.38;;;;;;;;;;8237447;28;20065;-58
2023/12/19 02:49:47;;;;;;;14.13;9.43;;;;;;;;;;8238456;28;21036;-58
2023/12/19 02:53:48;;;;;;;13.15;9.38;;;;;;;;;;8235077;28;20277;-57
2023/12/19 02:57:48;;;;;;;12.73;8.57;;;;;;;;;;8234836;28;20072;-58
2023/12/19 03:01:48;;;;;;;16.08;10.18;;;;;;;;;;8225150;28;20035;-57
2023/12/19 03:05:48;;;;;;;12.80;8.32;;;;;;;;;;8223617;28;20017;-58
2023/12/19 03:09:49;;;;;;;12.90;8.65;;;;;;;;;;8234132;28;20041;-58
2023/12/19 03:13:49;;;;;;;13.30;8.68;;;;;;;;;;8235115;28;20155;-57
2023/12/19 03:17:49;;;;;;;12.83;8.30;;;;;;;;;;8238936;28;20054;-57
2023/12/19 03:21:49;;;;;;;12.40;8.27;;;;;;;;;;8233823;28;20273;-58
2023/12/19 03:25:50;;;;;;;12.57;8.60;;;;;;;;;;8235611;28;20026;-58
2023/12/19 03:29:50;;;;;;;10.13;7.55;;;;;;;;;;8231099;28;20073;-58
2023/12/19 03:33:50;;;;;;;11.98;7.82;;;;;;;;;;8226017;28;20042;-57
2023/12/19 03:37:51;;;;;;;11.45;8.40;;;;;;;;;;8224349;28;20537;-58
2023/12/19 03:41:51;;;;;;;10.05;7.55;;;;;;;;;;8225992;28;20028;-59
2023/12/19 03:45:54;;;;;;;10.13;7.70;;;;;;;;;;8225740;28;20042;-58
2023/12/19 03:49:54;;;;;;;10.25;7.35;;;;;;;;;;8220164;28;20503;-59
2023/12/19 03:53:55;;;;;;;10.97;7.63;;;;;;;;;;8226626;28;20602;-58
2023/12/19 03:57:55;;;;;;;11.20;7.63;;;;;;;;;;8220533;28;20296;-58
2023/12/19 04:01:56;;;;;;;9.23;6.95;;;;;;;;;;8222086;28;20037;-58
2023/12/19 04:05:56;;;;;;;9.68;7.00;;;;;;;;;;8221189;28;20018;-57
2023/12/19 04:09:57;;;;;;;12.18;7.95;;;;;;;;;;8227811;28;20445;-57
2023/12/19 04:13:57;;;;;;;8.73;6.70;;;;;;;;;;8227248;28;20064;-57
2023/12/19 04:17:57;;;;;;;10.68;7.22;;;;;;;;;;8224692;28;20447;-58
2023/12/19 04:21:57;;;;;;;10.70;8.07;;;;;;;;;;8232216;28;20021;-57
2023/12/19 04:25:58;;;;;;;10.25;7.55;;;;;;;;;;8224653;28;20109;-58
2023/12/19 04:29:58;;;;;;;11.02;8.32;;;;;;;;;;8228397;28;20072;-57
2023/12/19 04:33:58;;;;;;;11.15;7.53;;;;;;;;;;8222683;28;20053;-57
2023/12/19 04:37:58;;;;;;;11.20;8.57;;;;;;;;;;8228511;28;20025;-56
2023/12/19 04:41:59;;;;;;;13.23;9.10;;;;;;;;;;8221771;28;20017;-57
2023/12/19 04:46:01;;;;;;;12.73;9.27;;;;;;;;;;8225582;28;20042;-58
2023/12/19 04:50:03;;;;;;;12.40;9.25;;;;;;;;;;8225052;28;20479;-57
2023/12/19 04:54:05;;;;;;;12.02;9.38;;;;;;;;;;8230158;28;20906;-58
2023/12/19 04:58:06;;;;;;;13.43;9.35;;;;;;;;;;8227885;28;20121;-56
2023/12/19 05:02:07;;;;;;;13.65;9.00;;;;;;;;;;8225486;28;20093;-57
2023/12/19 05:06:10;;;;;;;12.85;9.48;;;;;;;;;;8235986;28;20029;-57
2023/12/19 05:10:10;;;;;;;11.57;8.88;;;;;;;;;;8230497;28;20100;-56
2023/12/19 05:14:11;;;;;;;12.63;8.97;;;;;;;;;;8249565;28;20164;-57
2023/12/19 05:18:11;;;;;;;14.27;9.10;;;;;;;;;;8231420;28;20289;-58
2023/12/19 05:22:11;;;;;;;11.82;8.65;;;;;;;;;;8228317;28;20073;-57
2023/12/19 05:26:11;;;;;;;13.23;9.00;;;;;;;;;;8225192;28;20145;-58
2023/12/19 05:30:12;;;;;;;14.43;9.73;;;;;;;;;;8227650;28;20076;-58
2023/12/19 05:34:12;;;;;;;15.82;10.73;;;;;;;;;;8232515;28;20033;-56
2023/12/19 05:38:12;;;;;;;12.65;9.15;;;;;;;;;;8230877;28;20037;-58
2023/12/19 05:42:12;;;;;;;15.43;9.25;;;;;;;;;;8237772;28;20030;-57
2023/12/19 05:46:13;;;;;;;16.67;10.40;;;;;;;;;;8233057;28;20572;-58
2023/12/19 05:50:14;;;;;;;12.60;9.07;;;;;;;;;;8229133;28;20112;-57
2023/12/19 05:54:14;;;;;;;12.70;8.38;;;;;;;;;;8226014;28;20026;-57
2023/12/19 05:58:14;;;;;;;12.18;8.10;;;;;;;;;;8217275;28;20037;-55
2023/12/19 06:02:15;;;;;;;13.85;8.88;;;;;;;;;;8223808;28;20041;-56
2023/12/19 06:06:15;;;;;;;16.15;9.18;;;;;;;;;;8226438;28;20021;-57
2023/12/19 06:10:17;;;;;;;12.57;8.35;;;;;;;;;;8229873;28;20470;-57
2023/12/19 06:14:17;;;;;;;13.85;8.35;;;;;;;;;;8223816;28;20026;-57
2023/12/19 06:18:17;;;;;;;13.77;8.45;;;;;;;;;;8221557;28;20038;-58
2023/12/19 06:22:17;;;;;;;12.13;7.68;;;;;;;;;;8231036;28;20022;-57
2023/12/19 06:26:18;;;;;;;10.98;7.43;;;;;;;;;;8226014;28;20025;-57
2023/12/19 06:30:19;;;;;;;14.38;8.32;;;;;;;;;;8224965;28;20029;-57
2023/12/19 06:34:19;;;;;;;10.70;7.28;;;;;;;;;;8229833;28;20026;-58
2023/12/19 06:38:19;;;;;;;10.80;7.32;;;;;;;;;;8227923;28;20781;-58
2023/12/19 06:42:21;;;;;;;11.15;7.85;;;;;;;;;;8231227;28;20076;-58
2023/12/19 06:46:21;;;;;;;13.45;7.80;;;;;;;;;;8227325;28;20153;-57
2023/12/19 06:50:24;;;;;;;13.00;8.20;;;;;;;;;;8225664;28;20100;-58
2023/12/19 06:54:24;;;;;;;14.05;9.10;;;;;;;;;;8228509;28;20646;-58
2023/12/19 06:58:24;;;;;;;17.85;11.02;;;;;;;;;;8223264;28;20036;-56
2023/12/19 07:02:24;;;;;;;19.20;11.32;;;;;;;;;;8226313;28;20034;-57
2023/12/19 07:06:25;;;;;;;19.50;11.55;;;;;;;;;;8227600;28;20851;-56
2023/12/19 07:10:25;;;;;;;15.75;10.60;;;;;;;;;;8227209;28;20386;-57
2023/12/19 07:14:25;;;;;;;18.17;11.93;;;;;;;;;;8230302;28;20596;-57
2023/12/19 07:18:25;;;;;;;15.82;11.57;;;;;;;;;;8225311;28;20516;-57
2023/12/19 07:22:26;;;;;;;15.37;10.10;;;;;;;;;;8229298;28;20115;-58
2023/12/19 07:26:27;;;;;;;17.63;9.75;;;;;;;;;;8226174;28;20273;-57
2023/12/19 07:30:27;;;;;;;15.00;9.43;;;;;;;;;;8225828;28;20037;-57
2023/12/19 07:34:28;;;;;;;17.17;9.50;;;;;;;;;;8225190;28;20033;-58
2023/12/19 07:38:28;;;;;;;11.77;8.00;;;;;;;;;;8232947;28;20018;-57
2023/12/19 07:42:28;;;;;;;13.10;8.85;;;;;;;;;;8239225;28;20339;-57
2023/12/19 07:46:28;;;;;;;12.25;8.18;;;;;;;;;;8233569;28;20759;-56
2023/12/19 07:50:29;;;;;;;10.55;7.20;;;;;;;;;;8237983;28;20026;-57
2023/12/19 07:54:29;;;;;;;9.77;7.05;;;;;;;;;;8239442;28;20030;-57
2023/12/19 07:58:30;;;;;;;10.20;6.80;;;;;;;;;;8235724;28;20026;-56
2023/12/19 08:02:32;;;;;;;10.05;6.93;;;;;;;;;;8239508;28;20026;-56
2023/12/19 08:06:32;;;;;;;10.23;7.20;;;;;;;;;;8238731;28;20033;-57
2023/12/19 08:10:32;;;;;;;12.85;8.95;;;;;;;;;;8233326;28;20018;-57
2023/12/19 08:14:32;;;;;;;12.45;8.27;;;;;;;;;;8237290;28;20089;-56
2023/12/19 08:18:33;;;;;;;14.10;9.15;;;;;;;;;;8236679;28;20743;-56
2023/12/19 08:22:33;;;;;;;13.07;8.75;;;;;;;;;;8226544;28;20028;-57
2023/12/19 08:26:33;;;;;;;12.80;8.98;;;;;;;;;;8227116;28;20056;-56
2023/12/19 08:30:33;;;;;;;14.68;8.95;;;;;;;;;;8223601;28;20042;-57
2023/12/19 08:34:33;;;;;;;15.95;9.13;;;;;;;;;;8224431;28;20018;-55
2023/12/19 08:38:33;;;;;;;12.73;7.85;;;;;;;;;;8231265;28;20050;-56
2023/12/19 08:42:34;;;;;;;16.02;9.93;;;;;;;;;;8230289;28;20133;-56
2023/12/19 08:46:34;;;;;;;10.00;7.22;;;;;;;;;;8232392;28;20038;-56
2023/12/19 08:50:34;;;;;;;11.80;8.00;;;;;;;;;;8229188;28;20264;-57
2023/12/19 08:54:35;;;;;;;9.38;6.95;;;;;;;;;;8230426;28;20362;-57
2023/12/19 08:58:36;;;;;;;7.30;5.68;;;;;;;;;;8228826;28;20033;-56
2023/12/19 09:02:36;;;;;;;11.07;6.80;;;;;;;;;;8222528;28;20116;-56
2023/12/19 09:06:36;;;;;;;10.55;6.95;;;;;;;;;;8225408;28;20139;-58
2023/12/19 09:10:36;;;;;;;7.45;5.38;;;;;;;;;;8227779;28;20036;-56
2023/12/19 09:14:37;;;;;;;9.88;6.07;;;;;;;;;;8228375;28;20036;-58
2023/12/19 09:18:37;;;;;;;8.03;5.63;;;;;;;;;;8231775;28;20042;-56
2023/12/19 09:22:37;;;;;;;7.63;5.32;;;;;;;;;;8234775;28;20253;-58
2023/12/19 09:26:38;;;;;;;9.38;5.88;;;;;;;;;;8230560;28;20033;-58
2023/12/19 09:30:38;;;;;;;8.27;5.88;;;;;;;;;;8231476;28;20069;-58
2023/12/19 09:34:41;;;;;;;9.75;6.57;;;;;;;;;;8227507;28;20022;-57
2023/12/19 09:38:41;;;;;;;9.02;6.63;;;;;;;;;;8229149;28;20034;-57
2023/12/19 09:42:42;;;;;;;10.15;7.07;;;;;;;;;;8228768;28;20051;-57
2023/12/19 09:46:47;;;;;;;7.70;5.75;;;;;;;;;;8229569;28;20152;-57
2023/12/19 09:50:47;;;;;;;8.35;6.30;;;;;;;;;;8229540;28;20165;-57
2023/12/19 09:54:51;;;;;;;11.70;7.05;;;;;;;;;;8228107;28;20128;-58
2023/12/19 09:58:53;;;;;;;8.90;6.00;;;;;;;;;;8226697;28;20037;-58
2023/12/19 10:02:54;;;;;;;7.90;5.60;;;;;;;;;;8227711;28;20038;-58
2023/12/19 10:07:00;;;;;;;10.48;6.40;;;;;;;;;;8227400;28;20743;-57
2023/12/19 10:11:00;;;;;;;12.32;7.47;;;;;;;;;;8236313;28;20022;-58
2023/12/19 10:15:13;;;;;;;9.07;6.03;;;;;;;;;;8243609;28;20025;-57
2023/12/19 10:19:13;;;;;;;8.55;5.95;;;;;;;;;;8245498;28;20969;-57
2023/12/19 10:23:14;;;;;;;8.73;6.00;;;;;;;;;;8241347;28;20092;-58
2023/12/19 10:27:21;;;;;;;8.30;5.78;;;;;;;;;;8243818;28;20029;-56
2023/12/19 10:31:24;;;;;;;8.25;6.47;;;;;;;;;;8225392;28;20772;-57
2023/12/19 10:35:24;;;;;;;9.77;5.78;;;;;;;;;;8226997;28;20545;-56
2023/12/19 10:39:24;;;;;;;10.80;6.80;;;;;;;;;;8225759;28;20920;-57
2023/12/19 10:43:24;;;;;;;11.15;7.05;;;;;;;;;;8224288;28;20014;-57
2023/12/19 10:47:25;;;;;;;10.85;6.85;;;;;;;;;;8228254;28;20141;-56
2023/12/19 10:51:41;;;;;;;9.38;5.82;;;;;;;;;;8228482;28;20920;-56
2023/12/19 10:55:44;;;;;;;10.50;6.20;;;;;;;;;;8232080;28;20025;-57
2023/12/19 10:59:45;;;;;;;9.67;6.50;;;;;;;;;;8229144;28;20029;-58
2023/12/19 11:03:51;;;;;;;7.95;5.25;;;;;;;;;;8225962;28;20029;-57
2023/12/19 11:07:52;;;;;;;8.32;5.72;;;;;;;;;;8231631;28;20026;-58
2023/12/19 11:11:52;;;;;;;8.88;6.13;;;;;;;;;;8226001;28;20693;-59
2023/12/19 11:15:56;;;;;;;6.72;5.32;;;;;;;;;;8229814;28;20988;-58
2023/12/19 11:20:03;;;;;;;7.95;5.72;;;;;;;;;;8225279;28;21011;-57
2023/12/19 11:24:07;;;;;;;8.07;5.68;;;;;;;;;;8222144;28;20095;-57
2023/12/19 11:28:09;;;;;;;8.18;5.90;;;;;;;;;;8223359;28;21310;-58
2023/12/19 11:32:33;;;;;;;8.20;6.25;;;;;;;;;;8222186;28;21896;-57
2023/12/19 11:36:33;;;;;;;;;;;;;;;;;;8223801;28;20767;-58
2023/12/19 11:40:57;;;;;;;9.63;6.63;;;;;;;;;;8226528;28;19917;-58
2023/12/19 11:44:57;;;;;;;8.82;6.32;;;;;;;;;;8225165;28;20120;-57
2023/12/19 11:48:57;;;;;;;8.38;6.47;;;;;;;;;;8226745;28;20173;-57
2023/12/19 11:52:58;;;;;;;9.10;6.00;;;;;;;;;;8224976;28;20022;-57
2023/12/19 11:56:59;;;;;;;6.80;5.45;;;;;;;;;;8226585;28;20061;-56
2023/12/19 12:01:00;;;;;;;7.60;5.13;;;;;;;;;;8222947;28;20045;-57
2023/12/19 12:05:02;;;;;;;7.97;5.30;;;;;;;;;;8217927;28;20125;-57
2023/12/19 12:09:05;;;;;;;6.95;5.00;;;;;;;;;;8220842;28;20022;-57
2023/12/19 12:13:05;;;;;;;6.00;4.85;;;;;;;;;;8229562;28;20084;-57
2023/12/19 12:17:05;;;;;;;7.05;4.78;;;;;;;;;;8234579;28;20842;-57
2023/12/19 12:21:06;;;;;;;6.97;4.40;;;;;;;;;;8232847;28;20064;-57
2023/12/19 12:25:07;;;;;;;5.28;3.95;;;;;;;;;;8229360;28;20033;-57
2023/12/19 12:29:07;;;;;;;5.43;4.50;;;;;;;;;;8224211;28;20030;-58
2023/12/19 12:33:07;;;;;;;5.13;4.53;;;;;;;;;;8231351;28;20336;-58
2023/12/19 12:37:08;;;;;;;4.93;4.03;;;;;;;;;;8234004;28;20148;-58
2023/12/19 12:41:09;;;;;;;7.63;4.45;;;;;;;;;;8233340;28;20080;-58
2023/12/19 12:45:14;;;;;;;6.60;3.90;;;;;;;;;;8221639;28;20026;-57
2023/12/19 12:49:19;;;;;;;5.20;4.30;;;;;;;;;;8221700;28;20037;-57
2023/12/19 12:53:19;;;;;;;4.95;4.05;;;;;;;;;;8221174;28;21653;-57
2023/12/19 12:57:19;;;;;;;9.30;4.50;;;;;;;;;;8230343;28;20413;-58
2023/12/19 13:01:21;;;;;;;5.47;4.35;;;;;;;;;;8234906;28;20288;-56
2023/12/19 13:05:22;;;;;;;7.38;5.50;;;;;;;;;;8235962;28;20065;-58
2023/12/19 13:09:22;;;;;;;7.40;4.90;;;;;;;;;;8234003;28;20026;-58
2023/12/19 13:13:24;;;;;;;8.57;5.03;;;;;;;;;;8235290;28;20021;-57
2023/12/19 13:17:24;;;;;;;7.45;5.43;;;;;;;;;;8233167;28;20115;-57
2023/12/19 13:21:24;;;;;;;8.30;5.30;;;;;;;;;;8234017;28;20072;-58
2023/12/19 13:25:25;;;;;;;9.23;5.43;;;;;;;;;;8240413;28;20037;-56
2023/12/19 13:29:25;;;;;;;5.93;4.50;;;;;;;;;;8231649;28;20136;-57
2023/12/19 13:33:25;;;;;;;8.13;6.03;;;;;;;;;;8225127;28;21210;-56
2023/12/19 13:37:25;;;;;;;6.85;5.00;;;;;;;;;;8227476;28;20045;-57
2023/12/19 13:41:26;;;;;;;6.72;5.00;;;;;;;;;;8226906;28;20036;-55
2023/12/19 13:45:26;;;;;;;10.53;5.53;;;;;;;;;;8230537;28;20050;-57
2023/12/19 13:49:27;;;;;;;8.45;6.55;;;;;;;;;;8225507;28;21888;-56
2023/12/19 13:53:27;;;;;;;7.75;5.63;;;;;;;;;;8228823;28;20132;-57
2023/12/19 13:57:27;;;;;;;6.17;4.70;;;;;;;;;;8223571;28;20030;-57
2023/12/19 14:01:29;;;;;;;8.73;5.82;;;;;;;;;;8228633;28;20293;-58
2023/12/19 14:05:30;;;;;;;7.40;5.07;;;;;;;;;;8229693;28;20040;-58
2023/12/19 14:09:31;;;;;;;7.22;5.40;;;;;;;;;;8226746;28;20610;-57
2023/12/19 14:13:31;;;;;;;8.35;5.68;;;;;;;;;;8227494;28;20052;-57
2023/12/19 14:17:32;;;;;;;9.20;5.80;;;;;;;;;;8225860;28;20069;-57
2023/12/19 14:21:32;;;;;;;7.68;5.70;;;;;;;;;;8225949;28;20033;-57
2023/12/19 14:25:32;;;;;;;6.57;4.97;;;;;;;;;;8225176;28;20061;-57
2023/12/19 14:29:33;;;;;;;7.10;4.55;;;;;;;;;;8225052;28;20025;-58
2023/12/19 14:33:33;;;;;;;6.97;5.13;;;;;;;;;;8221861;28;20057;-57
2023/12/19 14:37:33;;;;;;;9.82;6.00;;;;;;;;;;8225005;28;20025;-57
2023/12/19 14:41:33;;;;;;;5.20;4.30;;;;;;;;;;8235609;28;20854;-58
2023/12/19 14:45:34;;;;;;;4.60;3.72;;;;;;;;;;8240850;28;20034;-57
2023/12/19 14:49:37;;;;;;;6.13;4.53;;;;;;;;;;8229931;28;20452;-58
2023/12/19 14:53:38;;;;;;;5.90;4.60;;;;;;;;;;8218384;28;20124;-57
2023/12/19 14:57:38;;;;;;;6.00;4.53;;;;;;;;;;8215532;28;20850;-58
2023/12/19 15:01:38;;;;;;;6.70;5.10;;;;;;;;;;8222448;28;20053;-58
2023/12/19 15:05:39;;;;;;;6.13;4.82;;;;;;;;;;8219502;28;20064;-58
2023/12/19 15:09:39;;;;;;;6.82;5.05;;;;;;;;;;8217125;28;20057;-58
2023/12/19 15:13:40;;;;;;;6.38;4.82;;;;;;;;;;8217177;28;20029;-58
2023/12/19 15:17:40;;;;;;;9.30;5.30;;;;;;;;;;8216622;28;20041;-57
2023/12/19 15:21:40;;;;;;;6.65;4.95;;;;;;;;;;8218388;28;20941;-57
2023/12/19 15:25:41;;;;;;;7.53;5.35;;;;;;;;;;8218348;28;20123;-58
2023/12/19 15:29:41;;;;;;;8.30;5.70;;;;;;;;;;8220457;28;20049;-58
2023/12/19 15:33:42;;;;;;;8.63;5.60;;;;;;;;;;8220780;28;20045;-57
2023/12/19 15:37:42;;;;;;;6.35;5.10;;;;;;;;;;8218459;28;20140;-58
2023/12/19 15:41:43;;;;;;;16.85;6.43;;;;;;;;;;8213968;28;20039;-58
2023/12/19 15:45:43;;;;;;;7.65;5.35;;;;;;;;;;8215583;28;20049;-57
2023/12/19 15:49:43;;;;;;;7.87;5.47;;;;;;;;;;8213909;28;20060;-58
2023/12/19 15:53:44;;;;;;;9.00;5.43;;;;;;;;;;8219782;28;21174;-58
2023/12/19 15:57:44;;;;;;;6.97;5.05;;;;;;;;;;8219725;28;20292;-57
2023/12/19 16:01:47;;;;;;;8.03;5.03;;;;;;;;;;8217180;28;20049;-57
2023/12/19 16:05:47;;;;;;;7.05;5.35;;;;;;;;;;8215629;28;20803;-58
2023/12/19 16:09:47;;;;;;;7.18;5.20;;;;;;;;;;8220318;28;20044;-59
2023/12/19 16:13:49;;;;;;;7.32;5.30;;;;;;;;;;8217121;28;20063;-58
2023/12/19 16:17:53;;;;;;;7.40;4.90;;;;;;;;;;8220291;28;20068;-57
2023/12/19 16:21:54;;;;;;;7.68;5.47;;;;;;;;;;8236799;28;20144;-58
2023/12/19 16:25:56;;;;;;;7.47;5.50;;;;;;;;;;8229663;28;20053;-57
2023/12/19 16:29:57;;;;;;;7.22;5.40;;;;;;;;;;8220427;28;20029;-57
2023/12/19 16:33:57;;;;;;;8.52;6.30;;;;;;;;;;8214643;28;20052;-56
2023/12/19 16:37:58;;;;;;;18.05;6.28;;;;;;;;;;8217964;28;20050;-57
2023/12/19 16:41:59;;;;;;;8.07;6.43;;;;;;;;;;8217928;28;20029;-57
2023/12/19 16:45:59;;;;;;;8.82;6.15;;;;;;;;;;8218813;28;20487;-57
2023/12/19 16:50:00;;;;;;;7.25;6.05;;;;;;;;;;8218474;28;20030;-56
2023/12/19 16:54:00;;;;;;;10.40;6.67;;;;;;;;;;8218275;28;20040;-57
2023/12/19 16:58:00;;;;;;;9.77;6.60;;;;;;;;;;8221717;28;20281;-57
2023/12/19 17:02:01;;;;;;;8.65;6.35;;;;;;;;;;8234409;28;20039;-58
2023/12/19 17:06:02;;;;;;;12.25;8.00;;;;;;;;;;8233553;28;20918;-58
2023/12/19 17:10:03;;;;;;;12.05;7.70;;;;;;;;;;8225362;28;20136;-57
2023/12/19 17:14:03;;;;;;;9.18;5.90;;;;;;;;;;8223354;28;20128;-60
2023/12/19 17:18:04;;;;;;;7.75;5.65;;;;;;;;;;8223103;28;20050;-57
2023/12/19 17:22:05;;;;;;;8.27;6.20;;;;;;;;;;8224218;28;20025;-59
2023/12/19 17:26:05;;;;;;;11.25;7.32;;;;;;;;;;8223000;28;20033;-59
2023/12/19 17:30:05;;;;;;;10.75;7.88;;;;;;;;;;8227305;28;20034;-58
2023/12/19 17:34:06;;;;;;;10.85;6.93;;;;;;;;;;8226167;28;22142;-59
2023/12/19 17:38:06;;;;;;;7.80;5.63;;;;;;;;;;8223353;28;20176;-57
2023/12/19 17:42:06;;;;;;;7.70;5.32;;;;;;;;;;8222976;28;22173;-58
2023/12/19 17:46:06;;;;;;;7.45;5.50;;;;;;;;;;8222290;28;20042;-57
2023/12/19 17:50:07;;;;;;;9.98;6.43;;;;;;;;;;8223470;28;20127;-58
2023/12/19 17:54:07;;;;;;;8.95;6.53;;;;;;;;;;8218947;28;20566;-57
2023/12/19 17:58:07;;;;;;;11.88;8.07;;;;;;;;;;8223495;28;20029;-57
2023/12/19 18:02:08;;;;;;;8.60;6.32;;;;;;;;;;8208850;28;20044;-58
2023/12/19 18:06:15;;;;;;;15.98;7.82;;;;;;;;;;8218141;28;20321;-58
2023/12/19 18:10:15;;;;;;;13.43;7.90;;;;;;;;;;8217719;28;20030;-57
2023/12/19 18:14:15;;;;;;;13.30;7.85;;;;;;;;;;8232738;28;20021;-58
2023/12/19 18:18:18;;;;;;;8.60;5.90;;;;;;;;;;8227919;28;21363;-57
2023/12/19 18:22:19;;;;;;;9.25;6.47;;;;;;;;;;8222782;28;20214;-57
2023/12/19 18:26:19;;;;;;;10.88;6.65;;;;;;;;;;8218492;28;20132;-57
2023/12/19 18:30:19;;;;;;;10.93;6.82;;;;;;;;;;8217159;28;20036;-57
2023/12/19 18:34:21;;;;;;;9.80;6.47;;;;;;;;;;8220669;28;20087;-56
2023/12/19 18:38:21;;;;;;;8.50;6.25;;;;;;;;;;8217991;28;20030;-57
2023/12/19 18:42:21;;;;;;;9.05;6.10;;;;;;;;;;8219676;28;20527;-57
2023/12/19 18:46:22;;;;;;;9.17;5.73;;;;;;;;;;8218579;28;20041;-57
2023/12/19 18:50:22;;;;;;;9.27;6.22;;;;;;;;;;8218548;28;20332;-57
2023/12/19 18:54:22;;;;;;;9.32;5.13;;;;;;;;;;8217798;28;20502;-57
2023/12/19 18:58:22;;;;;;;5.18;4.60;;;;;;;;;;8213743;28;20922;-56
2023/12/19 19:02:22;;;;;;;5.90;4.40;;;;;;;;;;8211037;28;20058;-58
2023/12/19 19:06:25;;;;;;;6.10;4.70;;;;;;;;;;8214614;28;20026;-56
2023/12/19 19:10:26;;;;;;;5.43;4.40;;;;;;;;;;8215205;28;20022;-57
2023/12/19 19:14:27;;;;;;;5.28;4.15;;;;;;;;;;8215842;28;20029;-57
2023/12/19 19:18:28;;;;;;;8.52;5.28;;;;;;;;;;8212519;28;20046;-58
2023/12/19 19:22:30;;;;;;;5.80;4.53;;;;;;;;;;8217769;28;20022;-57
2023/12/19 19:26:30;;;;;;;8.57;5.10;;;;;;;;;;8216839;28;20026;-56
2023/12/19 19:30:30;;;;;;;8.60;4.43;;;;;;;;;;8225439;28;20091;-57
2023/12/19 19:34:30;;;;;;;9.02;5.22;;;;;;;;;;8228059;28;20029;-57
2023/12/19 19:38:31;;;;;;;6.20;5.00;;;;;;;;;;8225923;28;20178;-57
2023/12/19 19:42:31;;;;;;;6.20;5.10;;;;;;;;;;8224890;28;20041;-57
2023/12/19 19:46:34;;;;;;;8.27;5.30;;;;;;;;;;8226962;28;20030;-57
2023/12/19 19:50:34;;;;;;;9.23;6.90;;;;;;;;;;8219839;28;20272;-57
2023/12/19 19:54:34;;;;;;;8.70;6.22;;;;;;;;;;8214124;28;20025;-57
2023/12/19 19:58:35;;;;;;;11.63;6.97;;;;;;;;;;8217002;28;20092;-56
2023/12/19 20:02:35;;;;;;;8.50;6.20;;;;;;;;;;8225097;28;20157;-56
2023/12/19 20:06:35;;;;;;;14.20;7.00;;;;;;;;;;8225493;28;20042;-57
2023/12/19 20:10:35;;;;;;;14.18;7.28;;;;;;;;;;8222653;28;20279;-58
2023/12/19 20:14:36;;;;;;;12.57;7.75;;;;;;;;;;8230745;28;20034;-58
2023/12/19 20:18:36;;;;;;;11.32;7.60;;;;;;;;;;8226892;28;20037;-58
2023/12/19 20:22:36;;;;;;;10.38;6.40;;;;;;;;;;8221430;28;20033;-57
2023/12/19 20:26:41;;;;;;;18.00;7.82;;;;;;;;;;8225143;28;20188;-57
2023/12/19 20:30:41;;;;;;;11.02;6.63;;;;;;;;;;8215299;28;20384;-58
2023/12/19 20:34:41;;;;;;;8.15;5.75;;;;;;;;;;8219635;28;20519;-58
2023/12/19 20:38:44;;;;;;;8.43;6.13;;;;;;;;;;8219306;28;20715;-56
2023/12/19 20:42:44;;;;;;;12.25;8.13;;;;;;;;;;8217947;28;20474;-57
2023/12/19 20:46:46;;;;;;;12.80;7.03;;;;;;;;;;8215691;28;20030;-58
2023/12/19 20:50:46;;;;;;;12.38;8.25;;;;;;;;;;8217313;28;20773;-57
2023/12/19 20:54:46;;;;;;;10.02;6.57;;;;;;;;;;8219921;28;20026;-58
2023/12/19 20:58:47;;;;;;;10.95;6.97;;;;;;;;;;8218575;28;20037;-58
2023/12/19 21:02:47;;;;;;;10.10;6.93;;;;;;;;;;8215461;28;20038;-57
2023/12/19 21:06:47;;;;;;;10.68;6.50;;;;;;;;;;8216076;28;20022;-56
2023/12/19 21:10:47;;;;;;;8.07;5.03;;;;;;;;;;8218137;28;20562;-57
2023/12/19 21:14:48;;;;;;;6.47;4.95;;;;;;;;;;8220819;28;20033;-57
2023/12/19 21:18:48;;;;;;;6.32;4.47;;;;;;;;;;8217437;28;20061;-57
2023/12/19 21:22:48;;;;;;;4.18;3.58;;;;;;;;;;8219760;28;20834;-57
2023/12/19 21:26:49;;;;;;;4.97;3.35;;;;;;;;;;8214966;28;20033;-54
2023/12/19 21:30:49;;;;;;;2.80;2.60;;;;;;;;;;8215846;28;20041;-56
2023/12/19 21:34:50;;;;;;;3.38;3.05;;;;;;;;;;8220581;28;20029;-56
2023/12/19 21:38:55;;;;;;;3.47;2.70;;;;;;;;;;8219257;28;20026;-57
2023/12/19 21:42:55;;;;;;;5.10;2.85;;;;;;;;;;8215779;28;20727;-57
2023/12/19 21:46:56;;;;;;;4.37;3.43;;;;;;;;;;8216471;28;20128;-57
2023/12/19 21:50:57;;;;;;;4.22;3.08;;;;;;;;;;8220170;28;20410;-57
2023/12/19 21:54:57;;;;;;;3.17;2.88;;;;;;;;;;8216744;28;20021;-57
2023/12/19 21:58:57;;;;;;;3.65;3.17;;;;;;;;;;8224676;28;20095;-58
2023/12/19 22:02:57;;;;;;;3.17;2.87;;;;;;;;;;8218874;28;20072;-57
2023/12/19 22:06:58;;;;;;;3.38;3.00;;;;;;;;;;8217630;28;21199;-57
2023/12/19 22:10:58;;;;;;;3.30;3.00;;;;;;;;;;8218966;28;20026;-57
2023/12/19 22:14:58;;;;;;;4.00;3.08;;;;;;;;;;8214860;28;20304;-59
2023/12/19 22:18:59;;;;;;;3.97;3.25;;;;;;;;;;8213468;28;20038;-55
2023/12/19 22:22:59;;;;;;;3.72;2.95;;;;;;;;;;8215759;28;20031;-57
2023/12/19 22:27:00;;;;;;;4.60;3.30;;;;;;;;;;8215994;28;20017;-57
2023/12/19 22:31:01;;;;;;;2.70;2.50;;;;;;;;;;8215140;28;20038;-57
2023/12/19 22:35:03;;;;;;;2.85;2.65;;;;;;;;;;8215896;28;20045;-63
2023/12/19 22:39:03;;;;;;;4.35;3.53;;;;;;;;;;8216986;28;21123;-58
2023/12/19 22:43:05;;;;;;;5.47;3.60;;;;;;;;;;8216460;28;20506;-58
2023/12/19 22:47:05;;;;;;;4.43;3.50;;;;;;;;;;8216530;28;20034;-57
2023/12/19 22:51:05;;;;;;;4.00;3.60;;;;;;;;;;8213902;28;21084;-57
2023/12/19 22:55:06;;;;;;;4.47;3.33;;;;;;;;;;8213045;28;20324;-57
2023/12/19 22:59:06;;;;;;;3.25;2.95;;;;;;;;;;8212087;28;20037;-58
2023/12/19 23:03:06;;;;;;;3.75;3.13;;;;;;;;;;8213003;28;21917;-57
2023/12/19 23:07:07;;;;;;;3.40;2.95;;;;;;;;;;8216066;28;20127;-58
2023/12/19 23:11:09;;;;;;;2.75;2.55;;;;;;;;;;8216919;28;20037;-56
2023/12/19 23:15:10;;;;;;;3.17;2.88;;;;;;;;;;8222616;28;21655;-58
2023/12/19 23:19:10;;;;;;;3.05;2.35;;;;;;;;;;8221028;28;20030;-58
2023/12/19 23:23:11;;;;;;;4.15;2.60;;;;;;;;;;8221246;28;20068;-57
2023/12/19 23:27:11;;;;;;;3.65;2.10;;;;;;;;;;8224616;28;20061;-58
2023/12/19 23:31:14;;;;;;;2.45;2.25;;;;;;;;;;8219026;28;20170;-59
2023/12/19 23:35:15;;;;;;;2.20;2.00;;;;;;;;;;8225653;28;20029;-57
2023/12/19 23:39:15;;;;;;;2.22;1.83;;;;;;;;;;8220742;28;20289;-56
2023/12/19 23:43:18;;;;;;;1.70;1.60;;;;;;;;;;8221416;28;20045;-57
2023/12/19 23:47:18;;;;;;;1.90;1.70;;;;;;;;;;8220319;28;20929;-57
2023/12/19 23:51:18;;;;;;;1.83;1.73;;;;;;;;;;8217609;28;20029;-57
2023/12/19 23:55:18;;;;;;;1.90;1.80;;;;;;;;;;8219521;28;20050;-57